Time,TemperatureF,DewpointF,PressureIn,WindDirection,WindDirectionDegrees,WindSpeedMPH,WindSpeedGustMPH,Humidity,HourlyPrecipIn,Conditions,Clouds,dailyrainin,SoftwareType,DateUTC
2013-02-14 00:01:00,52.0,52.0,29.85,WNW,290,8.0,-999.0,100,0.00,,,-99.99,,2013-02-14 05:01:00,
2013-02-14 00:11:00,52.0,52.0,29.86,West,280,8.0,-999.0,100,0.00,,,-99.99,,2013-02-14 05:11:00,
2013-02-14 00:21:00,52.0,52.0,29.86,West,280,7.0,-999.0,100,0.00,,,-99.99,,2013-02-14 05:21:00,
2013-02-14 00:31:00,52.0,52.0,29.87,WNW,300,9.0,-999.0,100,0.00,,,-99.99,,2013-02-14 05:31:00,
2013-02-14 00:41:00,52.0,52.0,29.86,WNW,290,6.0,-999.0,100,0.00,,,-99.99,,2013-02-14 05:41:00,
2013-02-14 00:51:00,52.0,52.0,29.88,West,280,7.0,-999.0,100,0.00,,,-99.99,,2013-02-14 05:51:00,
2013-02-14 01:01:00,52.0,52.0,29.88,West,280,7.0,-999.0,100,0.00,,,-99.99,,2013-02-14 06:01:00,
2013-02-14 01:11:00,52.0,52.0,29.86,WNW,300,6.0,-999.0,100,0.00,,,-99.99,,2013-02-14 06:11:00,
2013-02-14 01:21:00,52.0,52.0,29.86,WNW,300,10.0,-999.0,100,0.00,,,-99.99,,2013-02-14 06:21:00,
2013-02-14 01:31:00,52.0,50.0,29.88,WNW,300,8.0,-999.0,93,0.00,,,-99.99,,2013-02-14 06:31:00,
2013-02-14 01:41:00,52.0,50.0,29.88,West,280,8.0,-999.0,93,0.00,,,-99.99,,2013-02-14 06:41:00,
2013-02-14 01:51:00,50.0,48.0,29.90,WNW,290,8.0,-999.0,93,0.00,,,-99.99,,2013-02-14 06:51:00,
2013-02-14 02:01:00,50.0,48.0,29.90,WNW,290,8.0,-999.0,93,0.00,,,-99.99,,2013-02-14 07:01:00,
2013-02-14 02:11:00,50.0,48.0,29.89,West,280,6.0,-999.0,93,0.00,,,-99.99,,2013-02-14 07:11:00,
2013-02-14 02:21:00,50.0,48.0,29.91,West,270,6.0,-999.0,93,0.00,,,-99.99,,2013-02-14 07:21:00,
2013-02-14 02:31:00,48.0,48.0,29.92,WNW,290,7.0,-999.0,100,0.00,,,-99.99,,2013-02-14 07:31:00,
2013-02-14 02:41:00,48.0,48.0,29.91,WNW,290,6.0,-999.0,100,0.00,,,-99.99,,2013-02-14 07:41:00,
2013-02-14 02:51:00,48.0,48.0,29.92,West,270,5.0,-999.0,100,0.00,,,-99.99,,2013-02-14 07:51:00,
2013-02-14 03:01:00,48.0,48.0,29.92,West,270,5.0,-999.0,100,0.00,,,-99.99,,2013-02-14 08:01:00,
2013-02-14 03:11:00,48.0,46.0,29.91,WNW,290,5.0,-999.0,93,0.00,,,-99.99,,2013-02-14 08:11:00,
2013-02-14 03:21:00,48.0,46.0,29.93,WNW,290,6.0,-999.0,93,0.00,,,-99.99,,2013-02-14 08:21:00,
2013-02-14 03:31:00,48.0,46.0,29.94,West,280,7.0,-999.0,93,0.00,,,-99.99,,2013-02-14 08:31:00,
2013-02-14 03:42:00,48.0,46.0,29.94,West,280,7.0,-999.0,93,0.00,,,-99.99,,2013-02-14 08:42:00,
2013-02-14 03:51:00,48.0,46.0,29.94,West,280,7.0,-999.0,93,0.00,,,-99.99,,2013-02-14 08:51:00,
2013-02-14 04:01:00,48.0,46.0,29.94,West,280,7.0,-999.0,93,0.00,,,-99.99,,2013-02-14 09:01:00,
2013-02-14 04:11:00,48.0,46.0,29.94,West,280,7.0,-999.0,93,0.00,,,-99.99,,2013-02-14 09:11:00,
2013-02-14 04:21:00,48.0,46.0,29.94,West,280,7.0,-999.0,93,0.00,,,-99.99,,2013-02-14 09:21:00,
2013-02-14 08:51:00,48.0,37.0,30.05,NE,40,8.0,16.0,66,0.00,,,-99.99,,2013-02-14 13:51:00,
2013-02-14 09:01:00,48.0,37.0,30.05,NE,40,8.0,16.0,66,0.00,,,-99.99,,2013-02-14 14:01:00,
2013-02-14 09:11:00,48.0,37.0,30.05,NE,40,8.0,-999.0,66,0.00,,,-99.99,,2013-02-14 14:11:00,
2013-02-14 09:21:00,48.0,37.0,30.06,NE,40,10.0,-999.0,66,0.00,,,-99.99,,2013-02-14 14:21:00,
2013-02-14 09:31:00,48.0,39.0,30.06,NNE,20,10.0,-999.0,70,0.00,,,-99.99,,2013-02-14 14:31:00,
2013-02-14 09:41:00,48.0,37.0,30.06,NNE,30,9.0,-999.0,66,0.00,,,-99.99,,2013-02-14 14:41:00,
2013-02-14 09:52:00,50.0,39.0,30.08,NNE,30,9.0,-999.0,66,0.00,,,-99.99,,2013-02-14 14:52:00,
2013-02-14 10:01:00,50.0,39.0,30.08,NNE,30,9.0,-999.0,66,0.00,,,-99.99,,2013-02-14 15:01:00,
2013-02-14 10:11:00,52.0,37.0,30.07,NE,40,10.0,-999.0,57,0.00,,,-99.99,,2013-02-14 15:11:00,
2013-02-14 10:21:00,50.0,37.0,30.06,NE,40,8.0,-999.0,61,0.00,,,-99.99,,2013-02-14 15:21:00,
2013-02-14 10:31:00,50.0,37.0,30.06,NNE,20,6.0,-999.0,61,0.00,,,-99.99,,2013-02-14 15:31:00,
2013-02-14 10:41:00,50.0,37.0,30.07,NNE,20,7.0,-999.0,61,0.00,,,-99.99,,2013-02-14 15:41:00,
2013-02-14 10:51:00,50.0,37.0,30.06,NE,50,5.0,-999.0,61,0.00,,,-99.99,,2013-02-14 15:51:00,
2013-02-14 11:02:00,50.0,37.0,30.06,NE,50,5.0,-999.0,61,-99.99,,,-99.99,,2013-02-14 16:02:00,
2013-02-14 11:11:00,50.0,37.0,30.07,ENE,70,5.0,-999.0,61,0.00,,,-99.99,,2013-02-14 16:11:00,
2013-02-14 11:21:00,50.0,37.0,30.08,NNE,30,6.0,-999.0,61,0.00,,,-99.99,,2013-02-14 16:21:00,
2013-02-14 11:31:00,50.0,36.0,30.08,NNE,30,3.0,-999.0,57,0.00,,,-99.99,,2013-02-14 16:31:00,
2013-02-14 11:41:00,52.0,36.0,30.08,ENE,70,3.0,-999.0,53,0.00,,,-99.99,,2013-02-14 16:41:00,
2013-02-14 11:51:00,52.0,37.0,30.08,ENE,60,5.0,-999.0,57,0.00,,,-99.99,,2013-02-14 16:51:00,
2013-02-14 12:01:00,52.0,37.0,30.08,ENE,60,5.0,-999.0,57,0.00,,,-99.99,,2013-02-14 17:01:00,
2013-02-14 12:11:00,52.0,37.0,30.07,NNE,20,6.0,-999.0,57,0.00,,,-99.99,,2013-02-14 17:11:00,
2013-02-14 12:21:00,52.0,37.0,30.06,North,350,7.0,-999.0,57,0.00,,,-99.99,,2013-02-14 17:21:00,
2013-02-14 12:31:00,52.0,37.0,30.06,North,350,5.0,-999.0,57,0.00,,,-99.99,,2013-02-14 17:31:00,
2013-02-14 12:41:00,52.0,37.0,30.06,North,360,3.0,-999.0,57,0.00,,,-99.99,,2013-02-14 17:41:00,
2013-02-14 12:51:00,52.0,37.0,30.06,North,0,0.0,-999.0,57,0.00,,,-99.99,,2013-02-14 17:51:00,
2013-02-14 13:01:00,52.0,37.0,30.06,North,0,0.0,-999.0,57,0.00,,,-99.99,,2013-02-14 18:01:00,
2013-02-14 13:11:00,52.0,37.0,30.06,North,10,6.0,-999.0,57,0.00,,,-99.99,,2013-02-14 18:11:00,
2013-02-14 13:22:00,52.0,37.0,30.04,NE,40,5.0,-999.0,57,0.00,,,-99.99,,2013-02-14 18:22:00,
2013-02-14 13:31:00,52.0,37.0,30.04,North,360,3.0,-999.0,57,0.00,,,-99.99,,2013-02-14 18:31:00,
2013-02-14 13:41:00,52.0,37.0,30.04,North,0,0.0,-999.0,57,0.00,,,-99.99,,2013-02-14 18:41:00,
2013-02-14 13:51:00,52.0,37.0,30.05,North,0,0.0,-999.0,57,0.00,,,-99.99,,2013-02-14 18:51:00,
2013-02-14 14:01:00,52.0,37.0,30.05,North,0,0.0,-999.0,57,0.00,,,-99.99,,2013-02-14 19:01:00,
2013-02-14 14:11:00,54.0,37.0,30.05,North,0,0.0,-999.0,54,0.00,,,-99.99,,2013-02-14 19:11:00,
2013-02-14 14:21:00,54.0,39.0,30.04,SE,130,6.0,-999.0,58,0.00,,,-99.99,,2013-02-14 19:21:00,
2013-02-14 14:31:00,54.0,39.0,30.05,ESE,120,5.0,-999.0,58,0.00,,,-99.99,,2013-02-14 19:31:00,
2013-02-14 14:41:00,52.0,39.0,30.04,SE,130,6.0,-999.0,61,0.00,,,-99.99,,2013-02-14 19:41:00,
2013-02-14 14:51:00,52.0,39.0,30.03,SE,130,7.0,-999.0,61,0.00,,,-99.99,,2013-02-14 19:51:00,
2013-02-14 15:01:00,52.0,39.0,30.03,SE,130,7.0,-999.0,61,0.00,,,-99.99,,2013-02-14 20:01:00,
2013-02-14 15:11:00,52.0,41.0,30.02,ESE,120,7.0,-999.0,66,0.00,,,-99.99,,2013-02-14 20:11:00,
2013-02-14 15:21:00,52.0,39.0,30.02,SE,140,5.0,-999.0,61,0.00,,,-99.99,,2013-02-14 20:21:00,
2013-02-14 15:31:00,52.0,39.0,30.03,ESE,120,6.0,-999.0,61,0.00,,,-99.99,,2013-02-14 20:31:00,
2013-02-14 15:41:00,52.0,41.0,30.03,ESE,110,6.0,-999.0,66,0.00,,,-99.99,,2013-02-14 20:41:00,
2013-02-14 15:51:00,54.0,41.0,30.03,SE,130,6.0,-999.0,62,0.00,,,-99.99,,2013-02-14 20:51:00,
2013-02-14 16:01:00,54.0,41.0,30.03,SE,130,6.0,-999.0,62,0.00,,,-99.99,,2013-02-14 21:01:00,
2013-02-14 16:11:00,52.0,39.0,30.03,SE,130,7.0,-999.0,61,0.00,,,-99.99,,2013-02-14 21:11:00,
2013-02-14 16:21:00,52.0,39.0,30.03,East,100,5.0,-999.0,61,0.00,,,-99.99,,2013-02-14 21:21:00,
2013-02-14 16:31:00,52.0,39.0,30.04,SE,130,6.0,-999.0,61,0.00,,,-99.99,,2013-02-14 21:31:00,
2013-02-14 16:41:00,52.0,39.0,30.04,SE,130,6.0,-999.0,61,0.00,,,-99.99,,2013-02-14 21:41:00,
2013-02-14 16:51:00,50.0,39.0,30.05,SE,140,7.0,-999.0,66,0.00,,,-99.99,,2013-02-14 21:51:00,
2013-02-14 17:01:00,50.0,39.0,30.05,SE,140,7.0,-999.0,66,0.00,,,-99.99,,2013-02-14 22:01:00,
2013-02-14 17:11:00,50.0,39.0,30.04,SE,130,7.0,-999.0,66,0.00,,,-99.99,,2013-02-14 22:11:00,
2013-02-14 17:21:00,50.0,39.0,30.04,ESE,120,6.0,-999.0,66,0.00,,,-99.99,,2013-02-14 22:21:00,
2013-02-14 17:31:00,48.0,39.0,30.03,ESE,110,5.0,-999.0,70,0.00,,,-99.99,,2013-02-14 22:31:00,
2013-02-14 17:42:00,48.0,39.0,30.03,ESE,110,3.0,-999.0,70,-99.99,,,-99.99,,2013-02-14 22:42:00,
2013-02-14 17:51:00,48.0,39.0,30.04,North,0,0.0,-999.0,70,0.00,,,-99.99,,2013-02-14 22:51:00,
2013-02-14 18:01:00,48.0,39.0,30.04,North,0,0.0,-999.0,70,0.00,,,-99.99,,2013-02-14 23:01:00,
2013-02-14 18:11:00,48.0,43.0,30.05,SSE,150,3.0,-999.0,81,0.00,,,-99.99,,2013-02-14 23:11:00,
2013-02-14 18:21:00,46.0,41.0,30.06,North,0,0.0,-999.0,81,0.00,,,-99.99,,2013-02-14 23:21:00,
2013-02-14 18:31:00,46.0,41.0,30.07,North,0,0.0,-999.0,81,0.00,,,-99.99,,2013-02-14 23:31:00,
2013-02-14 18:41:00,46.0,41.0,30.07,North,0,0.0,-999.0,81,0.00,,,-99.99,,2013-02-14 23:41:00,
2013-02-14 18:51:00,46.0,43.0,30.06,North,0,0.0,-999.0,87,0.00,,,-99.99,,2013-02-14 23:51:00,
2013-02-14 19:01:00,46.0,43.0,30.06,North,0,0.0,-999.0,87,0.00,,,-99.99,,2013-02-15 00:01:00,
2013-02-14 19:11:00,45.0,43.0,30.06,North,0,0.0,-999.0,93,0.00,,,-99.99,,2013-02-15 00:11:00,
2013-02-14 19:21:00,45.0,43.0,30.06,North,0,0.0,-999.0,93,0.00,,,-99.99,,2013-02-15 00:21:00,
2013-02-14 19:31:00,45.0,43.0,30.06,North,0,0.0,-999.0,93,0.00,,,-99.99,,2013-02-15 00:31:00,
2013-02-14 19:41:00,45.0,45.0,30.07,North,0,0.0,-999.0,100,0.00,,,-99.99,,2013-02-15 00:41:00,
2013-02-14 19:51:00,45.0,43.0,30.07,North,0,0.0,-999.0,93,0.00,,,-99.99,,2013-02-15 00:51:00,
2013-02-14 20:01:00,45.0,43.0,30.07,North,0,0.0,-999.0,93,0.00,,,-99.99,,2013-02-15 01:01:00,
2013-02-14 20:11:00,45.0,43.0,30.08,North,0,0.0,-999.0,93,0.00,,,-99.99,,2013-02-15 01:11:00,
2013-02-14 20:21:00,45.0,43.0,30.08,North,0,0.0,-999.0,93,0.00,,,-99.99,,2013-02-15 01:21:00,
2013-02-14 20:31:00,45.0,43.0,30.09,North,0,0.0,-999.0,93,0.00,,,-99.99,,2013-02-15 01:31:00,
2013-02-14 20:41:00,43.0,43.0,30.09,North,0,0.0,-999.0,100,0.00,,,-99.99,,2013-02-15 01:41:00,
2013-02-14 20:51:00,43.0,43.0,30.10,North,0,0.0,-999.0,100,0.00,,,-99.99,,2013-02-15 01:51:00,
2013-02-14 21:01:00,43.0,43.0,30.10,North,0,0.0,-999.0,100,0.00,,,-99.99,,2013-02-15 02:01:00,
2013-02-14 21:11:00,43.0,43.0,30.08,North,0,0.0,-999.0,100,0.00,,,-99.99,,2013-02-15 02:11:00,
2013-02-14 21:21:00,43.0,43.0,30.09,North,0,0.0,-999.0,100,0.00,,,-99.99,,2013-02-15 02:21:00,
2013-02-14 21:31:00,41.0,41.0,30.08,North,0,0.0,-999.0,100,0.00,,,-99.99,,2013-02-15 02:31:00,
2013-02-14 21:41:00,43.0,43.0,30.09,North,0,0.0,-999.0,100,0.00,,,-99.99,,2013-02-15 02:41:00,
2013-02-14 21:51:00,43.0,43.0,30.08,North,0,0.0,-999.0,100,0.00,,,-99.99,,2013-02-15 02:51:00,
2013-02-14 22:01:00,43.0,43.0,30.08,North,0,0.0,-999.0,100,0.00,,,-99.99,,2013-02-15 03:01:00,
2013-02-14 22:11:00,41.0,41.0,30.07,North,0,0.0,-999.0,100,0.00,,,-99.99,,2013-02-15 03:11:00,
2013-02-14 22:21:00,41.0,41.0,30.08,North,0,0.0,-999.0,100,0.00,,,-99.99,,2013-02-15 03:21:00,
2013-02-14 22:31:00,41.0,41.0,30.08,North,0,0.0,-999.0,100,0.00,,,-99.99,,2013-02-15 03:31:00,
2013-02-14 22:41:00,39.0,39.0,30.08,North,0,0.0,-999.0,100,0.00,,,-99.99,,2013-02-15 03:41:00,
2013-02-14 22:51:00,39.0,39.0,30.08,North,0,0.0,-999.0,100,0.00,,,-99.99,,2013-02-15 03:51:00,
2013-02-14 23:01:00,39.0,39.0,30.08,North,0,0.0,-999.0,100,0.00,,,-99.99,,2013-02-15 04:01:00,
2013-02-14 23:11:00,41.0,41.0,30.10,North,0,0.0,-999.0,100,0.00,,,-99.99,,2013-02-15 04:11:00,
2013-02-14 23:21:00,39.0,39.0,30.09,North,0,0.0,-999.0,100,0.00,,,-99.99,,2013-02-15 04:21:00,
2013-02-14 23:31:00,39.0,39.0,30.08,North,0,0.0,-999.0,100,0.00,,,-99.99,,2013-02-15 04:31:00,
2013-02-14 23:41:00,39.0,39.0,30.08,North,0,0.0,-999.0,100,0.00,,,-99.99,,2013-02-15 04:41:00,
2013-02-14 23:51:00,41.0,41.0,30.07,North,0,0.0,-999.0,100,0.00,,,-99.99,,2013-02-15 04:51:00,